Latest Coastal Weather Observations for Yeppoon

IDQ60701

Issued at 8:31 am EST Thursday 2 April 2015 (issued every 10 minutes, with the page automatically refreshed every 10 minutes)

About coastal observations | Map of coastal stations | Coastal observations for QLD | Marine services | Other Formats
Station Details ID: 033294 Name: YEPPOON THE ESPLANADE Lat: -23.14 Lon: 150.75 Height: 5.5 m
Data from the previous 72 hours. | See also: Recent months at Yeppoon
Date/Time
EST
Temp

°C
Wind Pressure Rain
since 9am
mm
Weather Cloud Vis
km
Sea
Height
m
Swell
Dir
 
Speed
knots
Gust
knots
hPa Trend Height
m
Period
s
Dir
02/08:30am 24.1 SSE 8 10 1015.4 - 2.8 - - - - - - -
02/08:00am 23.2 S 6 9 1015.4 - 2.8 - - - - - - -
02/07:30am 22.1 S 7 10 1015.1 - 2.8 - - - - - - -
02/07:00am 21.2 S 8 11 1014.8 - 2.8 - - - - - - -
02/06:30am 20.5 S 6 9 1014.6 - 2.8 - - - - - - -
02/06:00am 20.3 S 7 9 1014.3 - 2.8 - - - - - - -
02/05:30am 20.4 S 9 11 1014.0 - 2.8 - - - - - - -
02/05:00am 20.6 S 8 12 1014.1 - 2.8 - - - - - - -
02/04:30am 20.4 S 8 11 1014.0 - 2.8 - - - - - - -
02/04:00am 20.4 S 8 12 1013.8 - 2.8 - - - - - - -
02/03:30am 20.5 S 7 10 1013.9 - 2.8 - - - - - - -
02/03:00am 20.7 S 7 11 1013.8 - 2.8 - - - - - - -
02/02:30am 20.9 S 8 11 1013.9 - 2.8 - - - - - - -
02/02:00am 21.6 S 6 9 1014.3 - 2.8 - - - - - - -
02/01:30am 21.9 S 7 10 1014.4 - 2.8 - - - - - - -
02/01:00am 21.9 SSE 7 10 1014.8 - 2.8 - - - - - - -
02/12:30am 22.0 SSE 8 11 1015.3 - 2.8 - - - - - - -
02/12:00am 21.9 S 8 11 1015.4 - 2.8 - - - - - - -
 
Date/Time
EST
Temp

°C
Wind Pressure Rain
since 9am
mm
Weather Cloud Vis
km
Sea
Height
m
Swell
Dir
 
Speed
knots
Gust
knots
hPa Trend Height
m
Period
s
Dir
01/11:30pm 22.0 S 5 7 1015.7 - 2.8 - - - - - - -
01/11:00pm 22.3 S 6 8 1016.0 - 2.8 - - - - - - -
01/10:30pm 22.5 SE 8 12 1016.3 - 2.8 - - - - - - -
01/10:00pm 22.3 SSE 8 11 1016.7 - 2.8 - - - - - - -
01/09:30pm 21.4 SSW 4 6 1016.7 - 2.8 - - - - - - -
01/09:00pm 21.6 SSE 5 7 1016.6 - 2.8 - - - - - - -
01/08:30pm 21.4 SSE 5 7 1016.5 - 2.8 - - - - - - -
01/08:00pm 21.5 SSE 7 11 1016.6 - 2.8 - - - - - - -
01/07:30pm 21.8 ESE 9 13 1016.5 - 2.0 - - - - - - -
01/07:00pm 22.6 ENE 18 23 1016.0 - 1.6 - - - - - - -
01/06:30pm 23.8 ENE 11 15 1015.4 - 1.2 - - - - - - -
01/06:00pm 22.7 E 12 16 1015.5 - 1.2 Rain - - - - - -
01/05:30pm 23.1 E 17 23 1015.1 - 1.0 - - - - - - -
01/05:00pm 22.9 ESE 8 13 1015.1 - 1.0 - - - - - - -
01/04:30pm 21.8 SSE 8 11 1014.8 - 1.0 - - - - - - -
01/04:00pm 23.3 ESE 12 19 1014.7 - 0.8 - - - - - - -
01/03:30pm 22.6 SE 9 14 1014.7 - 0.8 - - - - - - -
01/03:00pm 24.4 ESE 11 19 1014.7 - 0.2 - - - - - - -
01/02:30pm 23.5 ENE 12 15 1014.9 - 0.2 - - - - - - -
01/02:00pm 23.4 ESE 13 19 1015.3 - 0.2 - - - - - - -
01/01:30pm 24.7 ESE 13 19 1015.6 - 0.2 - - - - - - -
01/01:00pm 24.5 ESE 14 21 1015.8 - 0.2 - - - - - - -
01/12:30pm 24.9 ESE 11 16 1016.1 - 0.2 - - - - - - -
01/12:00pm 25.0 ESE 11 19 1016.4 - 0.2 Recent precip. - - - - - -
01/11:30am 24.9 SE 13 20 1016.9 - 0.0 - - - - - - -
01/11:00am 25.0 SE 12 17 1017.0 - 0.0 - - - - - - -
01/10:30am 24.1 SE 11 17 1017.6 - 0.0 - - - - - - -
01/10:00am 24.0 SSE 9 15 1017.9 - 0.0 - - - - - - -
01/09:30am 24.0 S 11 15 1017.8 - 0.0 - - - - - - -
01/09:00am 23.7 SSE 10 14 1018.1 - 7.2 - - - - - - -
01/08:30am 23.4 SSE 8 12 1017.7 - 7.2 - - - - - - -
01/08:00am 23.4 SE 8 10 1017.5 - 7.2 - - - - - - -
01/07:30am 22.1 SSE 6 8 1017.2 - 7.2 - - - - - - -
01/07:00am 21.8 SE 11 17 1016.8 - 7.0 - - - - - - -
01/06:30am 22.3 ESE 8 13 1016.8 - 6.8 - - - - - - -
01/06:00am 21.8 ESE 11 17 1016.9 - 6.8 Rain - - - - - -
01/05:30am 22.1 SSE 8 12 1016.4 - 5.6 - - - - - - -
01/05:00am 21.7 S 4 7 1016.4 - 5.6 - - - - - - -
01/04:30am 21.1 S 7 9 1016.1 - 5.6 - - - - - - -
01/04:00am 21.2 S 7 12 1015.6 - 5.6 - - - - - - -
01/03:30am 21.4 S 6 10 1015.6 - 5.4 - - - - - - -
01/03:00am 22.1 SSE 5 8 1015.7 - 5.4 Rain - - - - - -
01/02:30am 22.2 S 7 9 1016.3 - 4.8 - - - - - - -
01/02:00am 22.2 SSE 4 6 1016.7 - 4.8 - - - - - - -
01/01:30am 22.6 SE 7 11 1017.0 - 3.0 - - - - - - -
01/01:00am 22.7 SE 4 6 1017.8 - 3.0 - - - - - - -
01/12:30am 23.2 SSE 8 12 1017.7 - 2.8 - - - - - - -
01/12:00am 24.4 ESE 11 19 1017.3 - 2.8 - - - - - - -
 
Date/Time
EST
Temp

°C
Wind Pressure Rain
since 9am
mm
Weather Cloud Vis
km
Sea
Height
m
Swell
Dir
 
Speed
knots
Gust
knots
hPa Trend Height
m
Period
s
Dir
31/11:30pm 24.4 SE 8 11 1017.9 - 2.8 - - - - - - -
31/11:00pm 25.1 ESE 10 16 1018.1 - 2.8 - - - - - - -
31/10:30pm 25.3 ESE 9 14 1018.9 - 2.8 - - - - - - -
31/10:00pm 25.1 SE 9 14 1018.5 - 2.8 - - - - - - -
31/09:30pm 25.2 ESE 13 19 1018.5 - 2.8 - - - - - - -
31/09:00pm 24.8 ESE 12 17 1018.9 - 2.8 Recent precip. - - - - - -
31/08:49pm 24.7 ESE 15 25 1019.1 - 2.8 - - - - - - -
31/08:30pm 24.6 E 20 28 1018.8 - 2.8 - - - - - - -
31/08:00pm 24.7 E 18 22 1018.7 - 2.2 - - - - - - -
31/07:30pm 24.9 E 19 23 1018.1 - 1.4 - - - - - - -
31/07:00pm 25.1 E 17 21 1018.2 - 0.0 - - - - - - -
31/06:30pm 25.8 ENE 15 19 1018.0 - 0.0 - - - - - - -
31/06:00pm 26.6 ESE 13 21 1017.6 - 0.0 - - - - - - -
31/05:30pm 26.6 E 16 21 1017.1 - 0.0 - - - - - - -
31/05:00pm 26.7 ESE 12 17 1016.7 - 0.0 - - - - - - -
31/04:30pm 26.6 ESE 11 16 1016.4 - 0.0 - - - - - - -
31/04:00pm 26.6 ESE 12 19 1016.6 - 0.0 - - - - - - -
31/03:30pm 27.0 ESE 12 19 1016.5 - 0.0 - - - - - - -
31/03:00pm 27.8 ESE 11 18 1016.4 - 0.0 - - - - - - -
31/02:30pm 27.3 ESE 11 19 1016.7 - 0.0 - - - - - - -
31/02:00pm 27.4 ESE 13 18 1016.9 - 0.0 - - - - - - -
31/01:30pm 27.7 ESE 12 18 1017.3 - 0.0 - - - - - - -
31/01:00pm 27.6 ESE 12 17 1017.7 - 0.0 - - - - - - -
31/12:30pm 27.9 ESE 12 20 1018.0 - 0.0 - - - - - - -
31/12:00pm 27.8 E 15 20 1018.4 - 0.0 - - - - - - -
31/11:30am 28.2 ESE 12 17 1019.0 - 0.0 - - - - - - -
31/11:00am 27.5 SE 12 17 1019.3 - 0.0 - - - - - - -
31/10:30am 27.5 SE 11 15 1019.7 - 0.0 - - - - - - -
31/10:00am 26.9 SE 11 15 1020.0 - 0.0 - - - - - - -
31/09:30am 26.2 SE 12 17 1019.9 - 0.0 - - - - - - -
31/09:00am 25.9 SE 11 17 1019.8 - 0.0 - - - - - - -
31/08:30am 25.3 SSE 11 15 1019.7 - 0.0 - - - - - - -
31/08:00am 25.0 SE 9 13 1019.5 - 0.0 - - - - - - -
31/07:30am 24.5 SE 8 11 1019.3 - 0.0 - - - - - - -
31/07:00am 23.0 S 6 7 1019.0 - 0.0 - - - - - - -
31/06:30am 22.3 S 6 9 1018.6 - 0.0 - - - - - - -
31/06:00am 22.2 S 5 7 1018.3 - 0.0 - - - - - - -
31/05:30am 22.2 S 5 7 1018.2 - 0.0 - - - - - - -
31/05:00am 22.3 S 5 8 1018.0 - 0.0 - - - - - - -
31/04:30am 22.2 S 5 7 1017.9 - 0.0 - - - - - - -
31/04:00am 22.4 S 6 8 1017.7 - 0.0 - - - - - - -
31/03:30am 23.2 SSE 8 14 1017.7 - 0.0 - - - - - - -
31/03:00am 23.2 S 7 12 1017.8 - 0.0 - - - - - - -
31/02:30am 23.4 SSW 8 10 1018.0 - 0.0 - - - - - - -
31/02:00am 24.3 SSE 5 8 1018.3 - 0.0 - - - - - - -
31/01:30am 25.8 ESE 10 15 1018.7 - 0.0 - - - - - - -
31/01:00am 25.7 ESE 9 14 1019.1 - 0.0 - - - - - - -
31/12:30am 25.8 ESE 9 14 1019.4 - 0.0 - - - - - - -
31/12:00am 25.9 ESE 10 15 1019.7 - 0.0 - - - - - - -
 
Date/Time
EST
Temp

°C
Wind Pressure Rain
since 9am
mm
Weather Cloud Vis
km
Sea
Height
m
Swell
Dir
 
Speed
knots
Gust
knots
hPa Trend Height
m
Period
s
Dir
30/11:30pm 25.9 ESE 9 13 1019.8 - 0.0 - - - - - - -
30/11:00pm 26.0 SE 8 14 1020.0 - 0.0 - - - - - - -
30/10:30pm 26.1 SE 10 15 1020.3 - 0.0 - - - - - - -
30/10:00pm 26.1 ESE 10 15 1020.5 - 0.0 - - - - - - -
30/09:30pm 26.2 E 12 16 1020.6 - 0.0 - - - - - - -
30/09:00pm 26.2 E 13 19 1020.5 - 0.0 - - - - - - -
30/08:30pm 26.3 E 11 17 1020.3 - 0.0 - - - - - - -
30/08:00pm 26.3 ESE 13 18 1020.1 - 0.0 - - - - - - -
30/07:30pm 26.4 E 14 20 1019.8 - 0.0 - - - - - - -
30/07:00pm 26.3 ESE 11 18 1019.5 - 0.0 - - - - - - -
30/06:30pm 26.5 ESE 10 17 1019.3 - 0.0 - - - - - - -
30/06:00pm 26.5 ESE 9 17 1019.1 - 0.0 - - - - - - -
30/05:30pm 26.8 ESE 11 16 1018.8 - 0.0 - - - - - - -
30/05:00pm 27.1 E 13 18 1018.7 - 0.0 - - - - - - -
30/04:30pm 27.6 ESE 11 19 1018.5 - 0.0 - - - - - - -
30/04:00pm 27.7 ESE 13 18 1018.2 - 0.0 - - - - - - -
30/03:30pm 28.0 ESE 13 20 1018.0 - 0.0 - - - - - - -
30/03:00pm 28.1 ESE 13 18 1017.9 - 0.0 - - - - - - -
30/02:30pm 28.1 ESE 13 20 1018.0 - 0.0 - - - - - - -
30/02:00pm 28.3 ESE 13 20 1018.3 - 0.0 - - - - - - -
30/01:30pm 27.9 ESE 15 21 1018.5 - 0.0 - - - - - - -
30/01:00pm 28.1 ESE 12 18 1018.9 - 0.0 - - - - - - -
30/12:30pm 28.6 E 14 20 1019.2 - 0.0 - - - - - - -
30/12:00pm 28.3 ESE 13 17 1019.7 - 0.0 - - - - - - -
30/11:30am 28.0 ESE 12 18 1020.1 - 0.0 - - - - - - -
30/11:00am 27.3 ESE 12 19 1020.6 - 0.0 - - - - - - -
30/10:30am 27.7 SE 11 16 1020.9 - 0.0 - - - - - - -
30/10:00am 27.0 SE 11 15 1021.0 - 0.0 - - - - - - -
30/09:30am 26.7 ESE 10 15 1020.9 - 0.0 - - - - - - -
30/09:00am 26.2 SE 11 16 1020.9 - 20.0 - - - - - - -

Other Formats:

Comma delimited format used in spreadsheet applications
http://www.bom.gov.au/fwo/IDQ60701/IDQ60701.94373.axf

JavaScript Object Notation format (JSON) in row-major order
http://www.bom.gov.au/fwo/IDQ60701/IDQ60701.94373.json